sensor_id;sensor_type;location;lat;lon;timestamp;P1;durP1;ratioP1;P2;durP2;ratioP2
33900;SDS011;20193;49.810;6.418;2022-09-16T00:01:20;3.95;;;3.60;;
33900;SDS011;20193;49.810;6.418;2022-09-16T00:03:46;3.97;;;3.58;;
33900;SDS011;20193;49.810;6.418;2022-09-16T00:06:15;4.07;;;3.75;;
33900;SDS011;20193;49.810;6.418;2022-09-16T00:08:47;7.35;;;3.63;;
33900;SDS011;20193;49.810;6.418;2022-09-16T00:11:13;4.45;;;3.60;;
33900;SDS011;20193;49.810;6.418;2022-09-16T00:13:40;4.13;;;3.55;;
33900;SDS011;20193;49.810;6.418;2022-09-16T00:16:07;4.15;;;3.70;;
33900;SDS011;20193;49.810;6.418;2022-09-16T00:18:34;4.63;;;3.63;;
33900;SDS011;20193;49.810;6.418;2022-09-16T00:20:59;9.07;;;3.83;;
33900;SDS011;20193;49.810;6.418;2022-09-16T00:23:25;4.28;;;3.88;;
33900;SDS011;20193;49.810;6.418;2022-09-16T00:25:51;4.82;;;4.03;;
33900;SDS011;20193;49.810;6.418;2022-09-16T00:28:19;7.07;;;4.28;;
33900;SDS011;20193;49.810;6.418;2022-09-16T00:30:46;8.27;;;4.88;;
33900;SDS011;20193;49.810;6.418;2022-09-16T00:33:12;8.70;;;4.55;;
33900;SDS011;20193;49.810;6.418;2022-09-16T00:35:38;5.78;;;4.30;;
33900;SDS011;20193;49.810;6.418;2022-09-16T00:38:03;5.75;;;4.00;;
33900;SDS011;20193;49.810;6.418;2022-09-16T00:40:29;6.03;;;3.70;;
33900;SDS011;20193;49.810;6.418;2022-09-16T00:42:54;4.55;;;4.03;;
33900;SDS011;20193;49.810;6.418;2022-09-16T00:45:21;5.63;;;4.20;;
33900;SDS011;20193;49.810;6.418;2022-09-16T00:47:50;4.32;;;3.63;;
33900;SDS011;20193;49.810;6.418;2022-09-16T00:50:30;7.05;;;3.40;;
33900;SDS011;20193;49.810;6.418;2022-09-16T00:53:02;4.97;;;3.70;;
33900;SDS011;20193;49.810;6.418;2022-09-16T00:55:29;4.45;;;3.95;;
33900;SDS011;20193;49.810;6.418;2022-09-16T00:58:07;4.03;;;3.38;;
33900;SDS011;20193;49.810;6.418;2022-09-16T01:00:38;3.92;;;3.55;;
33900;SDS011;20193;49.810;6.418;2022-09-16T01:03:04;6.38;;;4.00;;
33900;SDS011;20193;49.810;6.418;2022-09-16T01:05:30;5.63;;;3.90;;
33900;SDS011;20193;49.810;6.418;2022-09-16T01:08:00;5.95;;;4.28;;
33900;SDS011;20193;49.810;6.418;2022-09-16T01:10:27;6.47;;;4.28;;
33900;SDS011;20193;49.810;6.418;2022-09-16T01:12:57;6.95;;;4.57;;
33900;SDS011;20193;49.810;6.418;2022-09-16T01:15:36;6.57;;;4.50;;
33900;SDS011;20193;49.810;6.418;2022-09-16T01:37:28;5.15;;;4.25;;
33900;SDS011;20193;49.810;6.418;2022-09-16T01:51:01;5.63;;;4.10;;
33900;SDS011;20193;49.810;6.418;2022-09-16T01:53:43;6.43;;;4.00;;
33900;SDS011;20193;49.810;6.418;2022-09-16T01:56:19;3.90;;;3.70;;
33900;SDS011;20193;49.810;6.418;2022-09-16T01:59:03;3.97;;;3.65;;
33900;SDS011;20193;49.810;6.418;2022-09-16T02:01:34;4.57;;;3.67;;
33900;SDS011;20193;49.810;6.418;2022-09-16T02:04:10;4.20;;;3.80;;
33900;SDS011;20193;49.810;6.418;2022-09-16T02:06:41;4.18;;;3.85;;
33900;SDS011;20193;49.810;6.418;2022-09-16T02:09:12;4.10;;;3.72;;
33900;SDS011;20193;49.810;6.418;2022-09-16T02:11:42;5.00;;;3.60;;
33900;SDS011;20193;49.810;6.418;2022-09-16T02:14:14;7.13;;;4.20;;
33900;SDS011;20193;49.810;6.418;2022-09-16T02:16:51;4.80;;;3.85;;
33900;SDS011;20193;49.810;6.418;2022-09-16T02:19:21;5.85;;;3.58;;
33900;SDS011;20193;49.810;6.418;2022-09-16T02:22:04;4.28;;;3.60;;
33900;SDS011;20193;49.810;6.418;2022-09-16T02:24:34;5.40;;;3.90;;
33900;SDS011;20193;49.810;6.418;2022-09-16T02:27:03;6.25;;;3.78;;
33900;SDS011;20193;49.810;6.418;2022-09-16T02:29:36;4.45;;;3.72;;
33900;SDS011;20193;49.810;6.418;2022-09-16T02:32:07;4.57;;;4.00;;
33900;SDS011;20193;49.810;6.418;2022-09-16T02:34:37;5.95;;;3.88;;
33900;SDS011;20193;49.810;6.418;2022-09-16T02:37:08;4.30;;;4.00;;
33900;SDS011;20193;49.810;6.418;2022-09-16T02:39:38;6.13;;;4.40;;
33900;SDS011;20193;49.810;6.418;2022-09-16T02:42:08;4.07;;;3.67;;
33900;SDS011;20193;49.810;6.418;2022-09-16T02:44:34;8.43;;;4.22;;
33900;SDS011;20193;49.810;6.418;2022-09-16T02:47:05;4.95;;;4.22;;
33900;SDS011;20193;49.810;6.418;2022-09-16T02:49:55;7.00;;;4.05;;
33900;SDS011;20193;49.810;6.418;2022-09-16T02:52:37;6.78;;;4.72;;
33900;SDS011;20193;49.810;6.418;2022-09-16T02:57:46;7.68;;;4.68;;
33900;SDS011;20193;49.810;6.418;2022-09-16T03:00:13;7.57;;;4.78;;
33900;SDS011;20193;49.810;6.418;2022-09-16T03:02:38;4.43;;;4.00;;
33900;SDS011;20193;49.810;6.418;2022-09-16T03:05:04;5.55;;;3.85;;
33900;SDS011;20193;49.810;6.418;2022-09-16T03:07:30;6.35;;;4.07;;
33900;SDS011;20193;49.810;6.418;2022-09-16T03:09:56;4.13;;;3.80;;
33900;SDS011;20193;49.810;6.418;2022-09-16T03:25:34;5.05;;;3.80;;
33900;SDS011;20193;49.810;6.418;2022-09-16T03:31:53;7.57;;;4.22;;
33900;SDS011;20193;49.810;6.418;2022-09-16T03:34:22;7.80;;;4.13;;
33900;SDS011;20193;49.810;6.418;2022-09-16T03:37:07;4.03;;;3.60;;
33900;SDS011;20193;49.810;6.418;2022-09-16T03:39:36;9.57;;;4.05;;
33900;SDS011;20193;49.810;6.418;2022-09-16T03:42:04;6.57;;;4.40;;
33900;SDS011;20193;49.810;6.418;2022-09-16T03:44:34;6.15;;;3.58;;
33900;SDS011;20193;49.810;6.418;2022-09-16T03:47:02;5.20;;;3.90;;
33900;SDS011;20193;49.810;6.418;2022-09-16T03:49:28;8.35;;;4.43;;
33900;SDS011;20193;49.810;6.418;2022-09-16T03:51:57;6.45;;;3.90;;
33900;SDS011;20193;49.810;6.418;2022-09-16T03:54:23;6.53;;;4.10;;
33900;SDS011;20193;49.810;6.418;2022-09-16T03:56:49;5.43;;;4.18;;
33900;SDS011;20193;49.810;6.418;2022-09-16T03:59:14;9.45;;;4.00;;
33900;SDS011;20193;49.810;6.418;2022-09-16T04:01:41;6.00;;;4.32;;
33900;SDS011;20193;49.810;6.418;2022-09-16T04:04:07;4.25;;;3.88;;
33900;SDS011;20193;49.810;6.418;2022-09-16T04:06:32;6.80;;;4.43;;
33900;SDS011;20193;49.810;6.418;2022-09-16T04:09:00;7.13;;;3.90;;
33900;SDS011;20193;49.810;6.418;2022-09-16T04:11:27;5.72;;;3.92;;
33900;SDS011;20193;49.810;6.418;2022-09-16T04:13:56;8.98;;;4.53;;
33900;SDS011;20193;49.810;6.418;2022-09-16T04:16:22;5.30;;;4.35;;
33900;SDS011;20193;49.810;6.418;2022-09-16T04:18:49;4.75;;;3.72;;
33900;SDS011;20193;49.810;6.418;2022-09-16T04:21:15;6.45;;;4.30;;
33900;SDS011;20193;49.810;6.418;2022-09-16T04:23:40;6.45;;;4.20;;
33900;SDS011;20193;49.810;6.418;2022-09-16T04:26:06;5.45;;;4.32;;
33900;SDS011;20193;49.810;6.418;2022-09-16T04:28:32;6.10;;;4.70;;
33900;SDS011;20193;49.810;6.418;2022-09-16T04:31:02;5.93;;;4.68;;
33900;SDS011;20193;49.810;6.418;2022-09-16T04:33:29;7.43;;;4.80;;
33900;SDS011;20193;49.810;6.418;2022-09-16T04:38:32;8.40;;;5.13;;
33900;SDS011;20193;49.810;6.418;2022-09-16T04:40:59;8.43;;;4.57;;
33900;SDS011;20193;49.810;6.418;2022-09-16T04:43:26;7.82;;;4.75;;
33900;SDS011;20193;49.810;6.418;2022-09-16T04:45:52;6.55;;;4.05;;
33900;SDS011;20193;49.810;6.418;2022-09-16T04:48:18;5.88;;;4.28;;
33900;SDS011;20193;49.810;6.418;2022-09-16T04:50:43;5.63;;;4.18;;
33900;SDS011;20193;49.810;6.418;2022-09-16T04:53:09;6.63;;;4.40;;
33900;SDS011;20193;49.810;6.418;2022-09-16T04:55:35;6.07;;;4.70;;
33900;SDS011;20193;49.810;6.418;2022-09-16T04:58:01;5.75;;;4.35;;
33900;SDS011;20193;49.810;6.418;2022-09-16T05:00:27;4.45;;;4.05;;
33900;SDS011;20193;49.810;6.418;2022-09-16T05:02:52;8.88;;;5.50;;
33900;SDS011;20193;49.810;6.418;2022-09-16T05:05:19;6.78;;;4.93;;
33900;SDS011;20193;49.810;6.418;2022-09-16T05:07:45;5.72;;;4.03;;
33900;SDS011;20193;49.810;6.418;2022-09-16T05:10:10;5.50;;;4.50;;
33900;SDS011;20193;49.810;6.418;2022-09-16T05:12:36;6.63;;;4.70;;
33900;SDS011;20193;49.810;6.418;2022-09-16T05:15:02;5.90;;;4.10;;
33900;SDS011;20193;49.810;6.418;2022-09-16T05:17:28;5.90;;;3.80;;
33900;SDS011;20193;49.810;6.418;2022-09-16T05:19:55;11.60;;;6.03;;
33900;SDS011;20193;49.810;6.418;2022-09-16T05:22:21;9.85;;;6.18;;
33900;SDS011;20193;49.810;6.418;2022-09-16T05:24:46;6.30;;;4.78;;
33900;SDS011;20193;49.810;6.418;2022-09-16T05:27:12;12.25;;;4.88;;
33900;SDS011;20193;49.810;6.418;2022-09-16T05:29:38;8.85;;;4.72;;
33900;SDS011;20193;49.810;6.418;2022-09-16T05:32:04;5.38;;;4.70;;
33900;SDS011;20193;49.810;6.418;2022-09-16T05:34:30;10.15;;;4.90;;
33900;SDS011;20193;49.810;6.418;2022-09-16T05:36:55;4.93;;;4.30;;
33900;SDS011;20193;49.810;6.418;2022-09-16T05:39:22;6.70;;;4.20;;
33900;SDS011;20193;49.810;6.418;2022-09-16T05:41:48;4.85;;;4.38;;
33900;SDS011;20193;49.810;6.418;2022-09-16T05:44:16;5.85;;;5.40;;
33900;SDS011;20193;49.810;6.418;2022-09-16T05:46:42;9.85;;;5.90;;
33900;SDS011;20193;49.810;6.418;2022-09-16T05:49:08;8.07;;;6.10;;
33900;SDS011;20193;49.810;6.418;2022-09-16T05:51:35;6.15;;;5.00;;
33900;SDS011;20193;49.810;6.418;2022-09-16T05:54:01;6.07;;;5.57;;
33900;SDS011;20193;49.810;6.418;2022-09-16T05:56:28;8.70;;;5.88;;
33900;SDS011;20193;49.810;6.418;2022-09-16T05:58:56;7.00;;;5.50;;
33900;SDS011;20193;49.810;6.418;2022-09-16T06:01:24;6.68;;;5.70;;
33900;SDS011;20193;49.810;6.418;2022-09-16T06:03:52;11.48;;;5.50;;
33900;SDS011;20193;49.810;6.418;2022-09-16T06:06:23;6.20;;;5.65;;
33900;SDS011;20193;49.810;6.418;2022-09-16T06:09:02;7.38;;;5.45;;
33900;SDS011;20193;49.810;6.418;2022-09-16T06:11:39;8.23;;;5.20;;
33900;SDS011;20193;49.810;6.418;2022-09-16T06:14:07;8.57;;;5.28;;
33900;SDS011;20193;49.810;6.418;2022-09-16T06:16:33;7.93;;;4.95;;
33900;SDS011;20193;49.810;6.418;2022-09-16T06:19:01;7.28;;;5.20;;
33900;SDS011;20193;49.810;6.418;2022-09-16T06:21:29;8.70;;;5.70;;
33900;SDS011;20193;49.810;6.418;2022-09-16T06:23:55;8.10;;;5.45;;
33900;SDS011;20193;49.810;6.418;2022-09-16T06:26:22;6.68;;;5.35;;
33900;SDS011;20193;49.810;6.418;2022-09-16T06:28:49;7.72;;;5.10;;
33900;SDS011;20193;49.810;6.418;2022-09-16T06:31:17;6.15;;;4.60;;
33900;SDS011;20193;49.810;6.418;2022-09-16T06:33:47;6.65;;;5.00;;
33900;SDS011;20193;49.810;6.418;2022-09-16T06:36:18;7.43;;;5.05;;
33900;SDS011;20193;49.810;6.418;2022-09-16T06:38:48;13.43;;;5.35;;
33900;SDS011;20193;49.810;6.418;2022-09-16T06:41:15;5.63;;;5.13;;
33900;SDS011;20193;49.810;6.418;2022-09-16T06:43:42;8.07;;;5.32;;
33900;SDS011;20193;49.810;6.418;2022-09-16T06:46:12;6.05;;;4.70;;
33900;SDS011;20193;49.810;6.418;2022-09-16T06:48:45;11.50;;;6.03;;
33900;SDS011;20193;49.810;6.418;2022-09-16T06:51:13;10.30;;;6.05;;
33900;SDS011;20193;49.810;6.418;2022-09-16T06:53:43;8.52;;;5.15;;
33900;SDS011;20193;49.810;6.418;2022-09-16T06:56:16;6.38;;;4.80;;
33900;SDS011;20193;49.810;6.418;2022-09-16T06:58:44;7.93;;;4.50;;
33900;SDS011;20193;49.810;6.418;2022-09-16T07:01:19;4.57;;;4.18;;
33900;SDS011;20193;49.810;6.418;2022-09-16T07:03:50;6.68;;;4.65;;
33900;SDS011;20193;49.810;6.418;2022-09-16T07:06:17;7.68;;;4.57;;
33900;SDS011;20193;49.810;6.418;2022-09-16T07:08:44;6.40;;;4.20;;
33900;SDS011;20193;49.810;6.418;2022-09-16T07:11:11;4.78;;;4.10;;
33900;SDS011;20193;49.810;6.418;2022-09-16T07:13:40;6.00;;;4.43;;
33900;SDS011;20193;49.810;6.418;2022-09-16T07:16:07;4.93;;;3.80;;
33900;SDS011;20193;49.810;6.418;2022-09-16T07:18:36;4.15;;;3.75;;
33900;SDS011;20193;49.810;6.418;2022-09-16T07:21:03;8.98;;;3.80;;
33900;SDS011;20193;49.810;6.418;2022-09-16T07:23:35;6.07;;;3.53;;
33900;SDS011;20193;49.810;6.418;2022-09-16T07:26:09;5.20;;;3.20;;
33900;SDS011;20193;49.810;6.418;2022-09-16T07:28:43;3.97;;;3.45;;
33900;SDS011;20193;49.810;6.418;2022-09-16T07:31:13;42.75;;;12.68;;
33900;SDS011;20193;49.810;6.418;2022-09-16T07:33:42;9.23;;;4.13;;
33900;SDS011;20193;49.810;6.418;2022-09-16T07:36:10;5.50;;;3.05;;
33900;SDS011;20193;49.810;6.418;2022-09-16T07:38:37;8.98;;;3.22;;
33900;SDS011;20193;49.810;6.418;2022-09-16T07:41:13;6.07;;;3.00;;
33900;SDS011;20193;49.810;6.418;2022-09-16T07:43:43;24.25;;;6.65;;
33900;SDS011;20193;49.810;6.418;2022-09-16T07:46:10;8.02;;;3.50;;
33900;SDS011;20193;49.810;6.418;2022-09-16T07:48:37;5.10;;;2.90;;
33900;SDS011;20193;49.810;6.418;2022-09-16T07:51:04;4.68;;;3.42;;
33900;SDS011;20193;49.810;6.418;2022-09-16T07:53:32;6.18;;;2.95;;
33900;SDS011;20193;49.810;6.418;2022-09-16T07:56:02;8.07;;;3.17;;
33900;SDS011;20193;49.810;6.418;2022-09-16T07:58:54;7.85;;;3.40;;
33900;SDS011;20193;49.810;6.418;2022-09-16T08:01:21;7.25;;;3.10;;
33900;SDS011;20193;49.810;6.418;2022-09-16T08:03:47;5.60;;;3.03;;
33900;SDS011;20193;49.810;6.418;2022-09-16T08:06:17;4.15;;;2.70;;
33900;SDS011;20193;49.810;6.418;2022-09-16T08:08:45;5.97;;;3.00;;
33900;SDS011;20193;49.810;6.418;2022-09-16T08:11:11;7.32;;;2.60;;
33900;SDS011;20193;49.810;6.418;2022-09-16T08:13:38;5.85;;;2.63;;
33900;SDS011;20193;49.810;6.418;2022-09-16T08:16:15;5.93;;;2.50;;
33900;SDS011;20193;49.810;6.418;2022-09-16T08:18:43;5.88;;;2.40;;
33900;SDS011;20193;49.810;6.418;2022-09-16T08:21:11;2.75;;;2.20;;
33900;SDS011;20193;49.810;6.418;2022-09-16T08:23:41;4.28;;;2.50;;
33900;SDS011;20193;49.810;6.418;2022-09-16T08:26:07;6.40;;;2.97;;
33900;SDS011;20193;49.810;6.418;2022-09-16T08:28:35;3.83;;;2.22;;
33900;SDS011;20193;49.810;6.418;2022-09-16T08:31:02;4.25;;;2.22;;
33900;SDS011;20193;49.810;6.418;2022-09-16T08:33:28;5.93;;;2.55;;
33900;SDS011;20193;49.810;6.418;2022-09-16T08:36:00;3.88;;;2.90;;
33900;SDS011;20193;49.810;6.418;2022-09-16T08:38:41;4.13;;;2.88;;
33900;SDS011;20193;49.810;6.418;2022-09-16T08:41:17;3.33;;;2.65;;
33900;SDS011;20193;49.810;6.418;2022-09-16T08:47:25;7.15;;;2.42;;
33900;SDS011;20193;49.810;6.418;2022-09-16T08:49:54;6.63;;;2.78;;
33900;SDS011;20193;49.810;6.418;2022-09-16T08:52:26;3.03;;;2.17;;
33900;SDS011;20193;49.810;6.418;2022-09-16T08:55:05;5.97;;;2.92;;
33900;SDS011;20193;49.810;6.418;2022-09-16T08:57:57;5.63;;;3.58;;
33900;SDS011;20193;49.810;6.418;2022-09-16T09:00:30;4.30;;;2.10;;
33900;SDS011;20193;49.810;6.418;2022-09-16T09:05:55;12.05;;;8.82;;
33900;SDS011;20193;49.810;6.418;2022-09-16T09:08:38;9.32;;;6.40;;
33900;SDS011;20193;49.810;6.418;2022-09-16T09:11:09;4.10;;;2.20;;
33900;SDS011;20193;49.810;6.418;2022-09-16T09:13:46;3.97;;;1.90;;
33900;SDS011;20193;49.810;6.418;2022-09-16T09:16:22;4.05;;;2.33;;
33900;SDS011;20193;49.810;6.418;2022-09-16T09:19:06;4.93;;;2.00;;
33900;SDS011;20193;49.810;6.418;2022-09-16T09:28:11;2.65;;;2.25;;
33900;SDS011;20193;49.810;6.418;2022-09-16T09:30:23;4.85;;;1.73;;
33900;SDS011;20193;49.810;6.418;2022-09-16T09:35:41;2.45;;;1.80;;
33900;SDS011;20193;49.810;6.418;2022-09-16T09:38:40;4.10;;;2.10;;
33900;SDS011;20193;49.810;6.418;2022-09-16T09:41:26;2.67;;;2.15;;
33900;SDS011;20193;49.810;6.418;2022-09-16T09:46:51;4.68;;;2.15;;
33900;SDS011;20193;49.810;6.418;2022-09-16T09:52:13;2.15;;;1.95;;
33900;SDS011;20193;49.810;6.418;2022-09-16T09:54:43;4.72;;;1.73;;
33900;SDS011;20193;49.810;6.418;2022-09-16T09:57:16;3.15;;;2.50;;
33900;SDS011;20193;49.810;6.418;2022-09-16T09:59:48;3.88;;;2.08;;
33900;SDS011;20193;49.810;6.418;2022-09-16T10:02:24;6.82;;;5.53;;
33900;SDS011;20193;49.810;6.418;2022-09-16T10:04:49;6.70;;;2.88;;
33900;SDS011;20193;49.810;6.418;2022-09-16T10:07:17;3.58;;;1.95;;
33900;SDS011;20193;49.810;6.418;2022-09-16T10:09:50;3.67;;;2.35;;
33900;SDS011;20193;49.810;6.418;2022-09-16T10:12:38;2.42;;;1.80;;
33900;SDS011;20193;49.810;6.418;2022-09-16T10:15:04;3.40;;;2.05;;
33900;SDS011;20193;49.810;6.418;2022-09-16T10:17:30;2.38;;;1.98;;
33900;SDS011;20193;49.810;6.418;2022-09-16T10:20:01;4.65;;;2.05;;
33900;SDS011;20193;49.810;6.418;2022-09-16T10:22:32;5.25;;;2.63;;
33900;SDS011;20193;49.810;6.418;2022-09-16T10:25:03;5.05;;;2.78;;
33900;SDS011;20193;49.810;6.418;2022-09-16T10:27:32;3.42;;;2.50;;
33900;SDS011;20193;49.810;6.418;2022-09-16T10:30:13;4.03;;;3.05;;
33900;SDS011;20193;49.810;6.418;2022-09-16T10:35:28;2.80;;;2.20;;
33900;SDS011;20193;49.810;6.418;2022-09-16T10:38:17;2.95;;;2.65;;
33900;SDS011;20193;49.810;6.418;2022-09-16T10:43:46;2.45;;;2.00;;
33900;SDS011;20193;49.810;6.418;2022-09-16T10:46:16;4.20;;;1.90;;
33900;SDS011;20193;49.810;6.418;2022-09-16T10:48:43;1.70;;;1.60;;
33900;SDS011;20193;49.810;6.418;2022-09-16T10:51:23;3.17;;;1.80;;
33900;SDS011;20193;49.810;6.418;2022-09-16T10:53:53;2.92;;;2.22;;
33900;SDS011;20193;49.810;6.418;2022-09-16T10:56:23;4.57;;;2.00;;
33900;SDS011;20193;49.810;6.418;2022-09-16T10:59:01;2.90;;;2.08;;
33900;SDS011;20193;49.810;6.418;2022-09-16T11:09:55;1.90;;;1.80;;
33900;SDS011;20193;49.810;6.418;2022-09-16T11:15:16;2.92;;;2.47;;
33900;SDS011;20193;49.810;6.418;2022-09-16T11:20:41;4.38;;;1.98;;
33900;SDS011;20193;49.810;6.418;2022-09-16T11:31:46;6.60;;;1.80;;
33900;SDS011;20193;49.810;6.418;2022-09-16T11:35:34;2.63;;;1.83;;
33900;SDS011;20193;49.810;6.418;2022-09-16T11:40:26;2.25;;;1.30;;
33900;SDS011;20193;49.810;6.418;2022-09-16T11:46:21;1.60;;;1.50;;
33900;SDS011;20193;49.810;6.418;2022-09-16T11:57:41;1.60;;;1.40;;
33900;SDS011;20193;49.810;6.418;2022-09-16T12:00:13;3.75;;;1.60;;
33900;SDS011;20193;49.810;6.418;2022-09-16T12:02:44;1.85;;;1.30;;
33900;SDS011;20193;49.810;6.418;2022-09-16T12:05:40;2.78;;;1.60;;
33900;SDS011;20193;49.810;6.418;2022-09-16T12:08:18;2.00;;;1.60;;
33900;SDS011;20193;49.810;6.418;2022-09-16T12:13:32;1.85;;;1.65;;
33900;SDS011;20193;49.810;6.418;2022-09-16T12:16:06;16.67;;;13.23;;
33900;SDS011;20193;49.810;6.418;2022-09-16T12:18:53;4.00;;;2.20;;
33900;SDS011;20193;49.810;6.418;2022-09-16T12:21:25;1.83;;;1.73;;
33900;SDS011;20193;49.810;6.418;2022-09-16T12:24:02;2.35;;;2.15;;
33900;SDS011;20193;49.810;6.418;2022-09-16T12:26:47;1.98;;;1.80;;
33900;SDS011;20193;49.810;6.418;2022-09-16T12:32:41;2.42;;;1.80;;
33900;SDS011;20193;49.810;6.418;2022-09-16T12:35:20;3.78;;;1.80;;
33900;SDS011;20193;49.810;6.418;2022-09-16T12:37:50;1.83;;;1.73;;
33900;SDS011;20193;49.810;6.418;2022-09-16T12:40:23;2.03;;;1.83;;
33900;SDS011;20193;49.810;6.418;2022-09-16T12:43:03;1.50;;;1.40;;
33900;SDS011;20193;49.810;6.418;2022-09-16T12:45:50;1.55;;;1.45;;
33900;SDS011;20193;49.810;6.418;2022-09-16T12:51:27;3.95;;;1.70;;
33900;SDS011;20193;49.810;6.418;2022-09-16T12:54:13;1.50;;;1.40;;
33900;SDS011;20193;49.810;6.418;2022-09-16T12:57:14;1.40;;;1.30;;
33900;SDS011;20193;49.810;6.418;2022-09-16T13:02:46;2.03;;;1.65;;
33900;SDS011;20193;49.810;6.418;2022-09-16T13:05:35;1.75;;;1.60;;
33900;SDS011;20193;49.810;6.418;2022-09-16T13:08:07;1.70;;;1.60;;
33900;SDS011;20193;49.810;6.418;2022-09-16T13:10:52;2.63;;;1.60;;
33900;SDS011;20193;49.810;6.418;2022-09-16T13:13:29;1.48;;;1.38;;
33900;SDS011;20193;49.810;6.418;2022-09-16T13:15:58;1.60;;;1.50;;
33900;SDS011;20193;49.810;6.418;2022-09-16T13:18:37;2.03;;;1.83;;
33900;SDS011;20193;49.810;6.418;2022-09-16T13:21:26;2.25;;;1.90;;
33900;SDS011;20193;49.810;6.418;2022-09-16T13:23:59;2.45;;;1.52;;
33900;SDS011;20193;49.810;6.418;2022-09-16T13:26:42;2.72;;;1.58;;
33900;SDS011;20193;49.810;6.418;2022-09-16T13:32:03;11.15;;;2.42;;
33900;SDS011;20193;49.810;6.418;2022-09-16T13:34:29;3.80;;;3.60;;
33900;SDS011;20193;49.810;6.418;2022-09-16T13:36:55;6.50;;;6.10;;
33900;SDS011;20193;49.810;6.418;2022-09-16T13:39:29;8.07;;;7.68;;
33900;SDS011;20193;49.810;6.418;2022-09-16T13:42:09;8.13;;;7.72;;
33900;SDS011;20193;49.810;6.418;2022-09-16T13:44:45;9.18;;;8.77;;
33900;SDS011;20193;49.810;6.418;2022-09-16T13:49:46;7.35;;;6.97;;
33900;SDS011;20193;49.810;6.418;2022-09-16T13:52:39;7.50;;;7.10;;
33900;SDS011;20193;49.810;6.418;2022-09-16T13:55:05;7.90;;;7.40;;
33900;SDS011;20193;49.810;6.418;2022-09-16T13:57:45;7.53;;;7.22;;
33900;SDS011;20193;49.810;6.418;2022-09-16T14:00:37;7.32;;;7.00;;
33900;SDS011;20193;49.810;6.418;2022-09-16T14:03:29;7.10;;;6.70;;
33900;SDS011;20193;49.810;6.418;2022-09-16T14:09:03;8.18;;;7.80;;
33900;SDS011;20193;49.810;6.418;2022-09-16T14:12:01;8.70;;;8.30;;
33900;SDS011;20193;49.810;6.418;2022-09-16T14:14:32;9.70;;;9.13;;
33900;SDS011;20193;49.810;6.418;2022-09-16T14:17:01;8.43;;;8.02;;
33900;SDS011;20193;49.810;6.418;2022-09-16T14:19:30;8.45;;;8.15;;
33900;SDS011;20193;49.810;6.418;2022-09-16T14:24:36;8.10;;;7.80;;
33900;SDS011;20193;49.810;6.418;2022-09-16T14:27:27;8.43;;;8.02;;
33900;SDS011;20193;49.810;6.418;2022-09-16T14:30:01;8.73;;;8.32;;
33900;SDS011;20193;49.810;6.418;2022-09-16T14:32:29;7.07;;;6.78;;
33900;SDS011;20193;49.810;6.418;2022-09-16T14:34:58;7.10;;;6.80;;
33900;SDS011;20193;49.810;6.418;2022-09-16T14:37:27;6.97;;;6.57;;
33900;SDS011;20193;49.810;6.418;2022-09-16T14:39:55;7.70;;;7.20;;
33900;SDS011;20193;49.810;6.418;2022-09-16T14:42:28;7.82;;;7.43;;
33900;SDS011;20193;49.810;6.418;2022-09-16T14:44:55;7.97;;;7.28;;
33900;SDS011;20193;49.810;6.418;2022-09-16T14:47:23;7.10;;;6.70;;
33900;SDS011;20193;49.810;6.418;2022-09-16T14:49:55;6.72;;;6.32;;
33900;SDS011;20193;49.810;6.418;2022-09-16T14:52:27;6.70;;;6.30;;
33900;SDS011;20193;49.810;6.418;2022-09-16T14:54:55;6.10;;;5.80;;
33900;SDS011;20193;49.810;6.418;2022-09-16T14:57:22;6.70;;;6.20;;
33900;SDS011;20193;49.810;6.418;2022-09-16T14:59:52;5.78;;;5.57;;
33900;SDS011;20193;49.810;6.418;2022-09-16T15:02:22;5.85;;;5.55;;
33900;SDS011;20193;49.810;6.418;2022-09-16T15:05:01;5.70;;;5.40;;
33900;SDS011;20193;49.810;6.418;2022-09-16T15:07:40;5.65;;;5.35;;
33900;SDS011;20193;49.810;6.418;2022-09-16T15:10:08;5.90;;;5.50;;
33900;SDS011;20193;49.810;6.418;2022-09-16T15:12:55;5.30;;;5.00;;
33900;SDS011;20193;49.810;6.418;2022-09-16T15:15:24;5.32;;;4.93;;
33900;SDS011;20193;49.810;6.418;2022-09-16T15:18:05;5.13;;;4.80;;
33900;SDS011;20193;49.810;6.418;2022-09-16T15:20:35;5.20;;;5.00;;
33900;SDS011;20193;49.810;6.418;2022-09-16T15:23:03;5.45;;;5.10;;
33900;SDS011;20193;49.810;6.418;2022-09-16T15:25:30;4.47;;;4.30;;
33900;SDS011;20193;49.810;6.418;2022-09-16T15:28:02;4.90;;;4.70;;
33900;SDS011;20193;49.810;6.418;2022-09-16T15:30:32;5.00;;;4.80;;
33900;SDS011;20193;49.810;6.418;2022-09-16T15:32:58;4.90;;;4.70;;
33900;SDS011;20193;49.810;6.418;2022-09-16T15:35:26;5.38;;;5.18;;
33900;SDS011;20193;49.810;6.418;2022-09-16T15:37:54;4.82;;;4.63;;
33900;SDS011;20193;49.810;6.418;2022-09-16T15:46:02;5.13;;;4.82;;
33900;SDS011;20193;49.810;6.418;2022-09-16T15:48:34;4.40;;;4.20;;
33900;SDS011;20193;49.810;6.418;2022-09-16T15:51:04;4.32;;;4.13;;
33900;SDS011;20193;49.810;6.418;2022-09-16T15:53:38;7.15;;;6.65;;
33900;SDS011;20193;49.810;6.418;2022-09-16T15:56:16;5.03;;;4.75;;
33900;SDS011;20193;49.810;6.418;2022-09-16T15:58:45;4.70;;;4.40;;
33900;SDS011;20193;49.810;6.418;2022-09-16T16:01:33;9.45;;;8.55;;
33900;SDS011;20193;49.810;6.418;2022-09-16T16:04:07;25.27;;;22.67;;
33900;SDS011;20193;49.810;6.418;2022-09-16T16:06:43;13.77;;;12.48;;
33900;SDS011;20193;49.810;6.418;2022-09-16T16:11:56;4.93;;;4.63;;
33900;SDS011;20193;49.810;6.418;2022-09-16T16:14:34;4.85;;;4.55;;
33900;SDS011;20193;49.810;6.418;2022-09-16T16:17:05;4.65;;;4.20;;
33900;SDS011;20193;49.810;6.418;2022-09-16T16:19:31;4.97;;;4.68;;
33900;SDS011;20193;49.810;6.418;2022-09-16T16:21:57;4.30;;;3.95;;
33900;SDS011;20193;49.810;6.418;2022-09-16T16:24:25;4.43;;;4.18;;
33900;SDS011;20193;49.810;6.418;2022-09-16T16:26:53;4.10;;;3.90;;
33900;SDS011;20193;49.810;6.418;2022-09-16T16:29:18;4.70;;;4.40;;
33900;SDS011;20193;49.810;6.418;2022-09-16T16:31:59;4.18;;;3.88;;
33900;SDS011;20193;49.810;6.418;2022-09-16T16:34:33;4.20;;;4.00;;
33900;SDS011;20193;49.810;6.418;2022-09-16T16:37:00;3.67;;;3.47;;
33900;SDS011;20193;49.810;6.418;2022-09-16T16:39:26;3.67;;;3.42;;
33900;SDS011;20193;49.810;6.418;2022-09-16T16:41:52;3.33;;;3.22;;
33900;SDS011;20193;49.810;6.418;2022-09-16T16:44:21;3.63;;;3.42;;
33900;SDS011;20193;49.810;6.418;2022-09-16T16:46:49;3.55;;;3.28;;
33900;SDS011;20193;49.810;6.418;2022-09-16T16:49:21;3.45;;;3.20;;
33900;SDS011;20193;49.810;6.418;2022-09-16T16:51:48;3.30;;;3.10;;
33900;SDS011;20193;49.810;6.418;2022-09-16T16:54:15;3.40;;;3.20;;
33900;SDS011;20193;49.810;6.418;2022-09-16T16:56:44;3.10;;;3.00;;
33900;SDS011;20193;49.810;6.418;2022-09-16T16:59:10;3.50;;;3.30;;
33900;SDS011;20193;49.810;6.418;2022-09-16T17:01:36;3.00;;;2.80;;
33900;SDS011;20193;49.810;6.418;2022-09-16T17:04:03;3.47;;;3.17;;
33900;SDS011;20193;49.810;6.418;2022-09-16T17:06:29;3.45;;;3.25;;
33900;SDS011;20193;49.810;6.418;2022-09-16T17:08:55;3.33;;;3.13;;
33900;SDS011;20193;49.810;6.418;2022-09-16T17:11:21;3.40;;;3.20;;
33900;SDS011;20193;49.810;6.418;2022-09-16T17:13:48;3.35;;;3.20;;
33900;SDS011;20193;49.810;6.418;2022-09-16T17:16:15;3.05;;;2.85;;
33900;SDS011;20193;49.810;6.418;2022-09-16T17:18:43;3.00;;;2.80;;
33900;SDS011;20193;49.810;6.418;2022-09-16T17:21:10;2.80;;;2.60;;
33900;SDS011;20193;49.810;6.418;2022-09-16T17:23:37;3.15;;;2.95;;
33900;SDS011;20193;49.810;6.418;2022-09-16T17:26:04;3.30;;;3.10;;
33900;SDS011;20193;49.810;6.418;2022-09-16T17:28:30;2.92;;;2.72;;
33900;SDS011;20193;49.810;6.418;2022-09-16T17:30:56;2.97;;;2.78;;
33900;SDS011;20193;49.810;6.418;2022-09-16T17:33:22;3.33;;;3.03;;
33900;SDS011;20193;49.810;6.418;2022-09-16T17:35:58;3.20;;;3.00;;
33900;SDS011;20193;49.810;6.418;2022-09-16T17:38:28;3.40;;;3.20;;
33900;SDS011;20193;49.810;6.418;2022-09-16T17:41:27;3.00;;;2.80;;